Time;durP1;ratioP1;P1;durP2;ratioP2;P2;SDS_P1;SDS_P2;PMS_P1;PMS_P2;Temp;Humidity;BMP_temperature;BMP_pressure;BME280_temperature;BME280_humidity;BME280_pressure;Samples;Min_cycle;Max_cycle;Signal;HPM_P1;HPM_P2
2020/12/12 00:01:33;;;;;;;17.60;7.30;;;;;;;-5.93;45.46;100392.56;10509462;28;20091;-50
2020/12/12 00:06:35;;;;;;;20.88;8.25;;;;;;;-5.75;45.27;100394.09;10514504;28;20052;-50
2020/12/12 00:11:38;;;;;;;18.48;6.65;;;;;;;-5.72;45.06;100405.16;10509237;28;20052;-49
2020/12/12 00:16:40;;;;;;;21.23;7.23;;;;;;;-5.69;45.17;100396.63;10506451;28;20052;-49
2020/12/12 00:21:42;;;;;;;18.67;8.35;;;;;;;-5.68;45.16;100394.03;10505520;28;20052;-50
2020/12/12 00:26:44;;;;;;;21.05;8.60;;;;;;;-5.61;45.13;100382.88;10503038;28;20082;-50
2020/12/12 00:31:46;;;;;;;20.20;8.00;;;;;;;-5.52;45.03;100389.63;10507395;28;20066;-52
2020/12/12 00:36:49;;;;;;;16.48;6.95;;;;;;;-5.46;44.86;100386.16;10508391;28;20052;-51
2020/12/12 00:41:51;;;;;;;29.13;8.63;;;;;;;-5.50;45.04;100389.63;10505085;28;20052;-50
2020/12/12 00:46:53;;;;;;;17.87;6.47;;;;;;;-5.39;45.19;100380.13;10493456;28;20048;-53
2020/12/12 00:51:55;;;;;;;16.08;7.80;;;;;;;-5.25;44.77;100383.41;10504250;28;20048;-51
2020/12/12 00:56:58;;;;;;;23.33;8.13;;;;;;;-5.21;44.39;100377.38;10503346;28;20584;-50
2020/12/12 01:01:59;;;;;;;22.03;8.93;;;;;;;-5.22;44.71;100383.38;10502391;28;20448;-51
2020/12/12 01:07:01;;;;;;;22.48;8.90;;;;;;;-5.24;44.48;100384.25;10502687;28;20056;-50
2020/12/12 01:12:04;;;;;;;22.42;8.75;;;;;;;-5.30;44.37;100385.16;10507312;28;20052;-50
2020/12/12 01:17:06;;;;;;;26.65;10.15;;;;;;;-5.39;44.63;100387.81;10502158;28;20044;-50
2020/12/12 01:22:08;;;;;;;22.50;9.60;;;;;;;-5.41;44.29;100387.00;10503118;28;20097;-49
2020/12/12 01:27:10;;;;;;;24.50;8.27;;;;;;;-5.47;44.53;100379.34;10501894;28;20049;-50
2020/12/12 01:32:14;;;;;;;26.37;9.13;;;;;;;-5.47;44.44;100379.34;10501087;28;20151;-49
2020/12/12 01:37:16;;;;;;;23.90;9.20;;;;;;;-5.45;44.47;100382.72;10501187;28;20057;-52
2020/12/12 01:42:19;;;;;;;20.67;7.65;;;;;;;-5.47;44.41;100385.31;10500951;28;20048;-50
2020/12/12 01:47:21;;;;;;;21.67;10.90;;;;;;;-5.45;44.20;100382.72;10500999;28;20053;-49
2020/12/12 01:52:24;;;;;;;20.52;8.85;;;;;;;-5.47;44.10;100382.75;10498783;28;20056;-51
2020/12/12 01:57:27;;;;;;;21.67;9.27;;;;;;;-5.45;44.25;100382.72;10499844;28;20056;-49
2020/12/12 02:02:29;;;;;;;15.80;6.70;;;;;;;-5.44;44.22;100389.56;10500448;28;20048;-49
2020/12/12 02:07:31;;;;;;;18.65;8.88;;;;;;;-5.43;43.99;100388.69;10500257;28;20067;-53
2020/12/12 02:12:33;;;;;;;23.50;9.15;;;;;;;-5.46;43.97;100394.69;10502302;28;20075;-50
2020/12/12 02:17:35;;;;;;;24.42;9.00;;;;;;;-5.53;44.35;100385.38;10498874;28;20110;-51
2020/12/12 02:22:38;;;;;;;21.33;8.77;;;;;;;-5.61;44.33;100390.53;10498026;28;20230;-51
2020/12/12 02:27:40;;;;;;;24.93;9.67;;;;;;;-5.66;44.47;100394.88;10499265;28;20053;-53
2020/12/12 02:32:41;;;;;;;20.63;7.68;;;;;;;-5.61;44.32;100387.13;10503631;28;20155;-50
2020/12/12 02:37:44;;;;;;;22.85;9.43;;;;;;;-5.57;44.04;100383.72;10501115;28;20444;-50
2020/12/12 02:42:46;;;;;;;16.45;6.65;;;;;;;-5.57;44.00;100384.56;10500808;28;20151;-50
2020/12/12 02:47:48;;;;;;;20.67;9.00;;;;;;;-5.55;44.03;100380.25;10500986;28;20052;-50
2020/12/12 02:52:51;;;;;;;20.00;9.38;;;;;;;-5.60;43.85;100382.03;10499759;28;20443;-52
2020/12/12 02:57:53;;;;;;;21.15;8.68;;;;;;;-5.70;44.44;100388.06;10499248;28;20063;-51
2020/12/12 03:02:55;;;;;;;19.75;9.02;;;;;;;-5.84;44.65;100383.06;10500872;28;20086;-50
2020/12/12 03:07:58;;;;;;;17.70;6.63;;;;;;;-5.90;44.83;100377.13;10499825;28;20060;-51
2020/12/12 03:13:00;;;;;;;29.67;9.60;;;;;;;-5.94;44.93;100368.66;10501002;28;20051;-50
2020/12/12 03:18:01;;;;;;;19.35;9.23;;;;;;;-5.99;45.20;100374.69;10502132;28;20691;-52
2020/12/12 03:23:04;;;;;;;23.38;8.68;;;;;;;-6.02;44.93;100375.53;10500895;28;20055;-50
2020/12/12 03:28:06;;;;;;;21.50;7.87;;;;;;;-6.11;45.15;100376.44;10500640;28;20049;-50
2020/12/12 03:33:08;;;;;;;24.30;9.35;;;;;;;-6.15;45.22;100372.22;10502017;28;20359;-50
2020/12/12 03:38:11;;;;;;;28.45;8.77;;;;;;;-6.18;45.14;100364.56;10503975;28;20056;-49
2020/12/12 03:43:12;;;;;;;16.00;7.32;;;;;;;-6.16;45.09;100367.09;10502279;28;20072;-49
2020/12/12 03:48:14;;;;;;;26.92;9.43;;;;;;;-6.15;45.18;100374.78;10498638;28;20058;-50
2020/12/12 03:53:17;;;;;;;21.55;8.93;;;;;;;-6.13;44.79;100372.19;10500519;28;20052;-53
2020/12/12 03:58:19;;;;;;;14.30;6.63;;;;;;;-6.12;44.81;100366.25;10501344;28;20060;-53
2020/12/12 04:03:20;;;;;;;23.75;8.98;;;;;;;-6.14;44.91;100361.09;10481797;28;20571;-50
2020/12/12 04:08:23;;;;;;;26.08;10.55;;;;;;;-6.16;44.87;100365.38;10491255;28;20542;-50
2020/12/12 04:13:25;;;;;;;28.10;9.73;;;;;;;-6.16;44.70;100367.94;10473850;28;20045;-52
2020/12/12 04:18:27;;;;;;;20.88;9.43;;;;;;;-6.16;44.63;100369.66;10465872;28;20048;-52
2020/12/12 04:23:29;;;;;;;19.42;8.75;;;;;;;-6.25;45.14;100362.88;10465314;28;20055;-48
2020/12/12 04:28:31;;;;;;;27.55;10.35;;;;;;;-6.26;45.08;100371.41;10478168;28;20142;-51
2020/12/12 04:33:33;;;;;;;22.52;9.10;;;;;;;-6.22;44.99;100364.56;10493138;28;20161;-49
2020/12/12 04:38:36;;;;;;;22.55;8.00;;;;;;;-6.24;45.30;100379.94;10506400;28;20063;-49
2020/12/12 04:43:40;;;;;;;29.35;11.27;;;;;;;-6.32;45.35;100366.34;10505091;28;20130;-50
2020/12/12 04:48:42;;;;;;;23.48;9.27;;;;;;;-6.35;45.52;100371.47;10506798;28;20519;-50
2020/12/12 04:53:45;;;;;;;17.77;6.57;;;;;;;-6.37;46.06;100380.84;10503951;28;20072;-50
2020/12/12 04:58:50;;;;;;;22.48;9.23;;;;;;;-6.39;46.04;100378.31;10504226;28;20109;-50
2020/12/12 05:03:57;;;;;;;19.55;8.65;;;;;;;-6.34;45.84;100379.16;10504568;28;20465;-50
2020/12/12 05:09:00;;;;;;;18.38;6.50;;;;;;;-6.44;46.13;100381.75;10504330;28;20048;-50
2020/12/12 05:14:09;;;;;;;17.25;6.35;;;;;;;-6.49;46.31;100377.53;10504257;28;20056;-50
2020/12/12 05:19:11;;;;;;;25.02;8.98;;;;;;;-6.40;46.33;100381.75;10491402;28;20057;-51
2020/12/12 05:24:13;;;;;;;23.67;9.10;;;;;;;-6.22;46.45;100388.44;10497146;28;20052;-51
2020/12/12 05:29:16;;;;;;;17.50;6.77;;;;;;;-5.95;46.17;100394.25;10462149;28;20056;-52
2020/12/12 05:34:17;;;;;;;21.58;8.43;;;;;;;-5.88;46.22;100393.31;10460620;28;20037;-52
2020/12/12 05:39:20;;;;;;;20.58;9.05;;;;;;;-5.66;45.92;100397.44;10460576;28;20049;-52
2020/12/12 05:44:22;;;;;;;16.58;6.57;;;;;;;-5.56;45.65;100391.38;10460040;28;20055;-52
2020/12/12 05:49:24;;;;;;;19.75;5.68;;;;;;;-5.87;45.60;100389.91;10456255;28;20049;-51
2020/12/12 05:54:26;;;;;;;12.48;6.40;;;;;;;-5.90;46.06;100389.94;10458177;28;20143;-55
2020/12/12 05:59:28;;;;;;;18.20;6.57;;;;;;;-5.63;46.29;100394.00;10461060;28;20059;-51
2020/12/12 06:04:35;;;;;;;22.55;9.95;;;;;;;-5.05;46.90;100397.72;10461565;28;20490;-52
2020/12/12 06:09:38;;;;;;;19.83;9.32;;;;;;;-4.35;46.64;100391.78;10461679;28;20413;-52
2020/12/12 06:14:45;;;;;;;21.30;8.90;;;;;;;-3.91;46.37;100398.00;10459929;28;20045;-55
2020/12/12 06:19:51;;;;;;;23.67;9.65;;;;;;;-3.53;46.36;100401.72;10461424;28;20161;-52
2020/12/12 06:25:00;;;;;;;24.65;11.35;;;;;;;-2.73;46.33;100402.84;10459279;28;20048;-55
2020/12/12 06:30:04;;;;;;;23.23;11.25;;;;;;;-2.97;44.07;100397.28;10459779;28;20086;-52
2020/12/12 06:35:06;;;;;;;24.35;11.30;;;;;;;-3.71;43.76;100397.69;10458664;28;20044;-51
2020/12/12 06:40:09;;;;;;;31.77;11.40;;;;;;;-4.10;43.84;100409.41;10459387;28;20405;-54
2020/12/12 06:45:31;;;;;;;24.33;10.43;;;;;;;-4.45;43.79;100405.59;10459291;28;20048;-52
2020/12/12 06:50:36;;;;;;;26.60;10.18;;;;;;;-4.64;43.81;100400.69;10460184;28;20060;-57
2020/12/12 06:55:39;;;;;;;25.67;10.40;;;;;;;-4.70;44.02;100405.91;10459905;28;20063;-54
2020/12/12 07:00:40;;;;;;;27.17;11.25;;;;;;;-4.76;43.96;100400.84;10472720;28;20504;-55
2020/12/12 07:05:42;;;;;;;26.85;10.88;;;;;;;-4.78;43.99;100402.56;10499811;28;20048;-51
2020/12/12 07:10:45;;;;;;;27.33;12.38;;;;;;;-4.83;44.23;100404.34;10499708;28;20049;-52
2020/12/12 07:15:47;;;;;;;28.45;11.20;;;;;;;-4.83;44.53;100391.53;10499746;28;20045;-52
2020/12/12 07:20:50;;;;;;;29.92;12.68;;;;;;;-4.61;44.51;100398.97;10499036;28;20408;-52
2020/12/12 07:25:52;;;;;;;35.27;14.07;;;;;;;-3.59;45.47;100392.38;10500069;28;20520;-52
2020/12/12 07:30:54;;;;;;;32.97;12.47;;;;;;;-0.79;45.98;100394.84;10501103;28;20163;-55
2020/12/12 07:35:56;;;;;;;29.02;13.93;;;;;;;1.81;45.25;100388.03;10503818;28;20485;-52
2020/12/12 07:40:58;;;;;;;27.50;14.52;;;;;;;4.15;43.39;100379.72;10507410;28;20044;-52
2020/12/12 07:46:04;;;;;;;36.45;15.32;;;;;;;5.80;41.48;100378.25;10508030;28;20059;-54
2020/12/12 07:51:12;;;;;;;31.10;14.55;;;;;;;7.16;38.79;100377.44;10507772;28;20056;-53
2020/12/12 07:56:18;;;;;;;31.65;15.90;;;;;;;6.74;36.47;100383.41;10507547;28;20420;-55
2020/12/12 08:01:23;;;;;;;34.15;14.57;;;;;;;4.76;35.36;100378.50;10507322;28;20056;-53
2020/12/12 08:06:27;;;;;;;35.58;16.15;;;;;;;2.90;36.41;100384.50;10507201;28;20044;-56
2020/12/12 08:11:31;;;;;;;34.60;13.20;;;;;;;1.61;36.83;100383.63;10506189;28;20070;-57
2020/12/12 08:16:39;;;;;;;36.33;14.68;;;;;;;0.68;37.37;100387.78;10505151;28;20071;-53
2020/12/12 08:21:41;;;;;;;32.90;14.23;;;;;;;0.13;37.04;100379.25;10505676;28;20060;-51
2020/12/12 08:26:43;;;;;;;45.72;16.35;;;;;;;-0.57;36.66;100374.44;10505273;28;20049;-52
2020/12/12 08:31:45;;;;;;;38.30;13.32;;;;;;;-1.14;37.20;100373.41;10509017;28;20048;-56
2020/12/12 08:36:47;;;;;;;36.35;13.82;;;;;;;-1.61;37.78;100375.47;10505717;28;20059;-53
2020/12/12 08:41:50;;;;;;;28.42;13.23;;;;;;;-1.81;38.03;100377.69;10506168;28;20534;-52
2020/12/12 08:46:52;;;;;;;27.02;11.50;;;;;;;-2.11;38.35;100372.34;10504716;28;20059;-52
2020/12/12 08:51:54;;;;;;;29.45;13.32;;;;;;;-2.22;38.88;100366.59;10506297;28;20432;-53
2020/12/12 08:57:09;;;;;;;29.23;13.13;;;;;;;-2.25;38.98;100377.78;10505735;28;20058;-51
2020/12/12 09:02:17;;;;;;;26.15;10.32;;;;;;;0.49;39.68;100374.59;10506819;28;20048;-52
2020/12/12 09:07:23;;;;;;;35.47;14.10;;;;;;;3.88;37.00;100363.69;10507615;28;20075;-52
2020/12/12 09:12:25;;;;;;;26.25;12.30;;;;;;;5.89;35.33;100364.69;10506210;28;20435;-56
2020/12/12 09:17:27;;;;;;;22.85;11.55;;;;;;;7.35;33.44;100354.44;10504189;28;20044;-57
2020/12/12 09:22:28;;;;;;;26.58;11.77;;;;;;;8.13;32.77;100359.19;10504903;28;20366;-52
2020/12/12 09:27:31;;;;;;;24.42;10.30;;;;;;;8.05;30.46;100353.59;10505068;28;20052;-53
2020/12/12 09:32:33;;;;;;;23.67;12.32;;;;;;;7.88;29.86;100343.34;10505076;28;20072;-56
2020/12/12 09:37:34;;;;;;;22.38;11.63;;;;;;;8.06;29.79;100342.16;10502249;28;20477;-55
2020/12/12 09:42:37;;;;;;;24.23;12.20;;;;;;;8.27;29.74;100337.31;10502277;28;20052;-53
2020/12/12 09:47:39;;;;;;;25.30;11.50;;;;;;;7.69;29.46;100352.34;10503346;28;20377;-59
2020/12/12 09:52:40;;;;;;;26.88;12.38;;;;;;;6.69;29.59;100341.91;10502605;28;20056;-56
2020/12/12 09:57:43;;;;;;;23.33;13.38;;;;;;;5.02;29.77;100341.53;10502160;28;20071;-53
2020/12/12 10:02:44;;;;;;;24.13;11.55;;;;;;;3.26;30.66;100355.22;10502687;28;20072;-56
2020/12/12 10:07:46;;;;;;;24.67;12.02;;;;;;;2.19;32.00;100357.19;10500870;28;20470;-51
2020/12/12 10:12:49;;;;;;;23.30;11.82;;;;;;;1.12;31.32;100346.56;10501928;28;20539;-53
2020/12/12 10:17:51;;;;;;;34.25;13.32;;;;;;;0.32;32.63;100345.88;10502438;28;20044;-52
2020/12/12 10:22:53;;;;;;;25.70;12.70;;;;;;;-0.34;33.33;100341.03;10502597;28;20366;-53
2020/12/12 10:27:57;;;;;;;22.77;11.55;;;;;;;-0.99;33.52;100344.59;10500592;28;20059;-52
2020/12/12 10:33:00;;;;;;;;;;;;;;;-1.41;34.16;100341.47;10500663;28;20507;-55
2020/12/12 10:38:02;;;;;;;25.77;9.68;;;;;;;-1.92;34.39;100342.69;10503405;28;19924;-53
2020/12/12 10:43:05;;;;;;;25.67;9.57;;;;;;;-2.26;34.55;100334.91;10500991;28;20050;-52
2020/12/12 10:48:07;;;;;;;31.67;12.00;;;;;;;-2.34;35.21;100337.66;10500733;28;20075;-55
2020/12/12 10:53:08;;;;;;;27.60;8.65;;;;;;;-2.47;35.44;100333.66;10501575;28;20052;-53
2020/12/12 10:58:11;;;;;;;21.98;7.30;;;;;;;-2.57;35.48;100333.00;10501461;28;20056;-54
2020/12/12 11:03:12;;;;;;;22.00;9.48;;;;;;;-2.71;35.86;100331.59;10501058;28;20050;-51
2020/12/12 11:08:14;;;;;;;20.65;8.93;;;;;;;-2.79;36.35;100336.91;10501091;28;20366;-60
2020/12/12 11:13:17;;;;;;;24.67;11.68;;;;;;;-2.92;36.52;100325.19;10514408;28;20048;-53
2020/12/12 11:18:18;;;;;;;25.85;9.80;;;;;;;-2.97;36.43;100337.28;10514364;28;20062;-54
2020/12/12 11:23:20;;;;;;;21.10;8.98;;;;;;;-3.04;36.59;100337.41;10513504;28;20358;-52
2020/12/12 11:28:22;;;;;;;24.40;11.25;;;;;;;-3.27;37.11;100339.53;10513109;28;20451;-54
2020/12/12 11:33:24;;;;;;;22.67;10.50;;;;;;;-3.33;37.34;100337.09;10515574;28;20198;-52
2020/12/12 11:38:34;;;;;;;25.23;10.27;;;;;;;-3.43;37.49;100336.41;10515752;28;20160;-52
2020/12/12 11:43:55;;;;;;;25.10;9.15;;;;;;;-3.47;37.90;100334.78;10513456;28;20051;-51
2020/12/12 11:48:58;;;;;;;18.48;7.70;;;;;;;-3.53;38.12;100342.59;10513498;28;20148;-52
2020/12/12 11:54:00;;;;;;;21.93;9.53;;;;;;;-3.62;38.16;100340.19;10512557;28;20466;-52
2020/12/12 11:59:03;;;;;;;23.08;8.90;;;;;;;-3.63;38.62;100341.91;10513793;28;20067;-51
2020/12/12 12:04:04;;;;;;;20.40;7.33;;;;;;;-3.73;38.98;100346.31;10512864;28;20139;-51
2020/12/12 12:09:17;;;;;;;19.58;8.68;;;;;;;-3.88;39.03;100338.03;10515480;28;20052;-51
2020/12/12 12:14:19;;;;;;;20.70;8.48;;;;;;;-3.98;39.34;100342.47;10517543;28;20496;-52
2020/12/12 12:19:21;;;;;;;20.77;7.70;;;;;;;-4.06;39.50;100346.88;10513576;28;20064;-51
2020/12/12 12:24:23;;;;;;;18.10;8.60;;;;;;;-4.12;39.68;100349.53;10505137;28;20055;-52
2020/12/12 12:29:25;;;;;;;28.77;12.48;;;;;;;-4.22;40.07;100343.66;10505948;28;20143;-51
2020/12/12 12:34:27;;;;;;;27.60;10.13;;;;;;;-4.22;39.92;100344.53;10507166;28;20045;-52
2020/12/12 12:39:29;;;;;;;23.77;9.48;;;;;;;-4.26;40.11;100340.31;10505308;28;20056;-52
2020/12/12 12:44:32;;;;;;;29.30;11.23;;;;;;;-4.43;40.55;100349.97;10505607;28;20175;-51
2020/12/12 12:49:34;;;;;;;27.80;10.90;;;;;;;-4.52;40.81;100345.81;10505028;28;20370;-52
2020/12/12 12:54:35;;;;;;;28.02;11.07;;;;;;;-4.58;40.72;100355.31;10505805;28;20061;-54
2020/12/12 12:59:38;;;;;;;34.78;12.35;;;;;;;-4.73;41.26;100346.94;10504876;28;20139;-54
2020/12/12 13:04:39;;;;;;;31.10;12.07;;;;;;;-4.84;41.72;100356.47;10503983;28;20393;-52
2020/12/12 13:09:41;;;;;;;30.63;13.60;;;;;;;-5.00;42.00;100360.06;10504458;28;20070;-52
2020/12/12 13:14:44;;;;;;;29.65;12.80;;;;;;;-5.15;42.53;100356.81;10504083;28;20072;-51
2020/12/12 13:19:47;;;;;;;29.87;12.93;;;;;;;-5.22;42.87;100357.75;10503455;28;20131;-52
2020/12/12 13:24:49;;;;;;;27.65;13.23;;;;;;;-5.27;42.75;100363.78;10503009;28;20040;-52
2020/12/12 13:35:12;;;;;;;25.00;11.98;;;;;;;-5.55;43.64;100357.19;10503830;28;20137;-55
2020/12/12 13:40:14;;;;;;;21.10;7.87;;;;;;;-5.56;43.79;100355.50;10502512;28;20040;-52
2020/12/12 13:45:16;;;;;;;25.05;10.32;;;;;;;-5.63;43.95;100356.44;10503102;28;20375;-51
2020/12/12 13:50:18;;;;;;;29.90;12.13;;;;;;;-5.68;44.01;100350.50;10505298;28;20147;-54
2020/12/12 13:55:20;;;;;;;31.00;13.43;;;;;;;-5.74;44.22;100345.41;10503595;28;20096;-51
2020/12/12 14:00:22;;;;;;;32.30;12.73;;;;;;;-5.75;44.13;100346.28;10502280;28;20048;-54
2020/12/12 14:05:27;;;;;;;35.63;13.45;;;;;;;-5.72;43.93;100360.78;10502143;28;20535;-54
2020/12/12 14:10:46;;;;;;;23.95;9.32;;;;;;;-5.85;44.59;100376.25;10501578;28;20167;-55
2020/12/12 14:21:34;;;;;;;14.43;6.00;;;;;;;-6.00;45.21;100363.59;10501376;28;20048;-51
2020/12/12 14:31:56;;;;;;;20.10;8.88;;;;;;;-6.15;45.66;100377.34;10501478;28;20050;-51
2020/12/12 14:36:57;;;;;;;8.23;5.17;;;;;;;-6.24;46.14;100374.84;10501233;28;20131;-51
2020/12/12 14:41:59;;;;;;;16.85;8.15;;;;;;;-6.20;46.34;100355.19;10502020;28;20131;-52
2020/12/12 14:47:03;;;;;;;25.52;8.75;;;;;;;-6.06;46.22;100349.13;10499226;28;20056;-52
2020/12/12 14:52:05;;;;;;;16.52;8.65;;;;;;;-5.89;45.92;100355.78;10500791;28;20048;-51
2020/12/12 14:57:07;;;;;;;22.75;10.20;;;;;;;-5.74;45.65;100347.97;10499730;28;20143;-52
2020/12/12 15:02:09;;;;;;;37.22;12.18;;;;;;;-5.47;45.16;100343.47;10499995;28;20060;-52
2020/12/12 15:07:11;;;;;;;31.52;13.00;;;;;;;-5.32;45.14;100330.53;10499328;28;20051;-55
2020/12/12 15:12:15;;;;;;;28.95;12.30;;;;;;;-5.16;44.79;100332.03;10499585;28;20057;-51
2020/12/12 15:17:18;;;;;;;29.17;11.13;;;;;;;-5.00;44.54;100332.72;10500249;28;20428;-52
2020/12/12 15:22:20;;;;;;;26.90;10.13;;;;;;;-4.96;44.26;100334.38;10501347;28;20049;-51
2020/12/12 15:27:21;;;;;;;30.50;12.60;;;;;;;-4.90;44.18;100334.28;10500599;28;20041;-52
2020/12/12 15:32:29;;;;;;;17.02;6.65;;;;;;;-4.86;44.04;100333.41;10498642;28;20053;-51
2020/12/12 15:37:31;;;;;;;25.80;11.25;;;;;;;-5.02;44.43;100326.75;10498451;28;20068;-52
2020/12/12 15:42:32;;;;;;;30.40;14.00;;;;;;;-5.00;44.66;100316.50;10499001;28;20049;-55
2020/12/12 15:47:35;;;;;;;33.10;13.45;;;;;;;-4.98;43.95;100307.91;10498657;28;20393;-51
2020/12/12 15:52:37;;;;;;;24.80;9.53;;;;;;;-5.17;43.81;100294.47;10498989;28;20075;-54
2020/12/12 15:57:38;;;;;;;22.42;8.00;;;;;;;-5.37;44.18;100327.16;10503450;28;20057;-52
2020/12/12 16:02:41;;;;;;;26.83;10.98;;;;;;;-5.66;45.15;100323.16;10507681;28;20052;-54
2020/12/12 16:07:46;;;;;;;15.88;5.72;;;;;;;-5.88;45.74;100349.78;10505298;28;20040;-52
2020/12/12 16:12:47;;;;;;;26.65;11.65;;;;;;;-5.90;45.90;100338.72;10505317;28;20048;-51
2020/12/12 16:17:52;;;;;;;10.48;5.43;;;;;;;-5.93;46.32;100349.88;10505552;28;20139;-56
2020/12/12 16:22:54;;;;;;;21.52;8.00;;;;;;;-5.87;46.60;100354.06;10506832;28;20060;-52
2020/12/12 16:27:56;;;;;;;17.23;7.63;;;;;;;-5.79;46.28;100362.53;10505146;28;20074;-51
2020/12/12 16:32:59;;;;;;;18.02;5.05;;;;;;;-5.76;46.54;100349.69;10504927;28;20059;-51
2020/12/12 16:38:00;;;;;;;26.02;10.50;;;;;;;-5.69;46.23;100353.09;10505978;28;20044;-51
2020/12/12 16:43:03;;;;;;;11.13;4.35;;;;;;;-5.68;46.61;100350.50;10504535;28;20056;-52
2020/12/12 16:48:06;;;;;;;27.70;9.52;;;;;;;-5.65;46.31;100331.69;10506223;28;20045;-55
2020/12/12 16:53:07;;;;;;;10.45;6.10;;;;;;;-5.68;46.42;100347.09;10506574;28;20443;-51
2020/12/12 16:58:09;;;;;;;14.98;4.88;;;;;;;-5.67;46.46;100335.97;10504744;28;20071;-52
2020/12/12 17:03:12;;;;;;;17.55;7.15;;;;;;;-5.63;46.46;100343.63;10504431;28;20071;-52
2020/12/12 17:08:14;;;;;;;25.63;9.25;;;;;;;-5.58;46.27;100329.03;10503455;28;20473;-55
2020/12/12 17:13:16;;;;;;;14.93;7.22;;;;;;;-5.66;46.33;100330.84;10503970;28;20052;-51
2020/12/12 17:18:18;;;;;;;18.23;7.00;;;;;;;-5.62;46.42;100321.41;10503882;28;20482;-51
2020/12/12 17:23:20;;;;;;;15.88;6.40;;;;;;;-5.66;46.31;100325.72;10506002;28;20067;-55
2020/12/12 17:28:21;;;;;;;8.88;5.10;;;;;;;-5.71;46.27;100326.63;10502961;28;20044;-54
2020/12/12 17:33:24;;;;;;;21.75;6.35;;;;;;;-5.73;46.39;100312.97;10505492;28;20483;-53
2020/12/12 17:38:26;;;;;;;24.23;7.70;;;;;;;-5.68;46.21;100322.31;10506429;28;20044;-54
2020/12/12 17:43:27;;;;;;;15.80;4.85;;;;;;;-5.75;46.21;100318.13;10503998;28;20461;-51
2020/12/12 17:48:35;;;;;;;21.75;7.25;;;;;;;-5.77;46.51;100304.47;10503349;28;20048;-52
2020/12/12 17:53:36;;;;;;;9.57;4.90;;;;;;;-5.74;46.33;100296.75;10502641;28;20114;-52
2020/12/12 17:58:38;;;;;;;23.05;8.73;;;;;;;-5.76;46.30;100293.34;10502529;28;20060;-50
2020/12/12 18:03:41;;;;;;;23.90;8.38;;;;;;;-5.59;46.19;100283.81;10503934;28;20362;-54
2020/12/12 18:08:42;;;;;;;19.60;8.55;;;;;;;-5.55;46.28;100289.75;10501169;28;20056;-52
2020/12/12 18:13:44;;;;;;;10.30;5.05;;;;;;;-5.43;45.90;100304.16;10501607;28;20048;-57
2020/12/12 18:18:46;;;;;;;21.25;8.82;;;;;;;-5.49;45.97;100299.09;10500788;28;20125;-52
2020/12/12 18:23:48;;;;;;;28.17;10.67;;;;;;;-5.47;46.14;100293.09;10500616;28;20052;-52
2020/12/12 18:28:52;;;;;;;25.90;10.18;;;;;;;-5.34;45.91;100278.44;10501926;28;20149;-54
2020/12/12 18:33:55;;;;;;;24.70;10.48;;;;;;;-5.27;45.72;100279.19;10502600;28;20066;-52
2020/12/12 18:38:56;;;;;;;20.33;10.27;;;;;;;-5.08;45.39;100285.81;10501555;28;20048;-54
2020/12/12 18:44:00;;;;;;;19.15;7.28;;;;;;;-5.04;45.53;100294.34;10500888;28;20143;-52
2020/12/12 18:49:03;;;;;;;10.00;4.43;;;;;;;-5.07;45.65;100291.81;10500830;28;20041;-55
2020/12/12 18:54:05;;;;;;;23.90;8.90;;;;;;;-5.17;45.55;100275.66;10502195;28;20094;-54
2020/12/12 18:59:06;;;;;;;13.60;6.78;;;;;;;-5.24;45.81;100289.41;10417455;28;20381;-54
2020/12/12 19:04:10;;;;;;;21.65;7.85;;;;;;;-5.21;45.67;100277.41;10417238;28;20143;-52
2020/12/12 19:09:11;;;;;;;;;;;;;;;-5.20;45.88;100280.81;10420422;28;20375;-53
2020/12/12 19:14:13;;;;;;;21.38;10.63;;;;;;;-5.25;46.13;100267.22;10415953;28;19925;-52
2020/12/12 19:19:16;;;;;;;14.65;6.10;;;;;;;-5.13;45.85;100282.47;10417918;28;20492;-56
2020/12/12 19:24:17;;;;;;;21.63;7.93;;;;;;;-5.09;45.90;100279.81;10417065;28;20045;-52
2020/12/12 19:29:19;;;;;;;22.15;5.25;;;;;;;-5.02;46.12;100270.34;10416097;28;20063;-52
2020/12/12 19:34:21;;;;;;;13.80;6.32;;;;;;;-4.96;46.14;100269.41;10423990;28;20068;-52
2020/12/12 19:39:25;;;;;;;12.32;5.07;;;;;;;-4.93;46.35;100267.66;10425257;28;20490;-53
2020/12/12 19:44:29;;;;;;;15.90;5.97;;;;;;;-4.91;46.38;100257.41;10424623;28;20079;-52
2020/12/12 19:49:31;;;;;;;;;;;;;;;-4.82;46.46;100264.13;10425153;28;20057;-54
2020/12/12 19:54:33;;;;;;;12.38;5.55;;;;;;;-4.84;46.48;100261.56;10431343;28;20338;-51
2020/12/12 19:59:35;;;;;;;17.17;7.32;;;;;;;-4.80;46.27;100260.69;10506912;28;20044;-52
2020/12/12 20:04:39;;;;;;;17.25;7.22;;;;;;;-4.70;46.49;100261.41;10506038;28;20048;-53
2020/12/12 20:09:41;;;;;;;18.33;7.18;;;;;;;-4.68;46.45;100270.78;10506556;28;20115;-51
2020/12/12 20:14:43;;;;;;;19.88;8.43;;;;;;;-4.66;46.80;100253.63;10505906;28;20388;-51
2020/12/12 20:19:45;;;;;;;20.02;7.22;;;;;;;-4.59;47.11;100261.22;10505993;28;20067;-52
2020/12/12 20:24:48;;;;;;;21.95;7.53;;;;;;;-4.65;46.99;100257.91;10506361;28;20048;-55
2020/12/12 20:29:49;;;;;;;21.00;7.65;;;;;;;-4.63;47.25;100256.16;10505446;28;20140;-52
2020/12/12 20:34:52;;;;;;;18.27;7.43;;;;;;;-4.55;47.35;100255.19;10506656;28;20055;-51
2020/12/12 20:39:55;;;;;;;6.78;2.65;;;;;;;-4.52;47.75;100260.28;10506416;28;20053;-53
2020/12/12 20:44:57;;;;;;;11.48;4.13;;;;;;;-4.55;47.83;100245.78;10504518;28;20049;-52
2020/12/12 20:49:59;;;;;;;19.27;6.75;;;;;;;-4.59;48.29;100245.84;10504938;28;20052;-52
2020/12/12 20:55:01;;;;;;;16.40;6.47;;;;;;;-4.50;48.34;100249.09;10505357;28;20079;-58
2020/12/12 21:00:05;;;;;;;16.95;7.35;;;;;;;-4.52;48.32;100244.91;10505715;28;20070;-52
2020/12/12 21:05:08;;;;;;;15.52;7.53;;;;;;;-4.41;48.37;100263.53;10503504;28;20059;-55
2020/12/12 21:10:09;;;;;;;22.70;9.07;;;;;;;-4.40;48.75;100240.41;10503763;28;20052;-51
2020/12/12 21:15:11;;;;;;;24.63;9.90;;;;;;;-4.36;48.87;100236.09;10503687;28;20052;-54
2020/12/12 21:20:14;;;;;;;10.70;4.88;;;;;;;-4.37;49.45;100234.41;10503091;28;20049;-51
2020/12/12 21:25:16;;;;;;;13.77;5.53;;;;;;;-4.44;50.03;100240.47;10502882;28;20048;-51
2020/12/12 21:30:17;;;;;;;23.05;7.03;;;;;;;-4.42;50.46;100236.19;10502964;28;20045;-52
2020/12/12 21:35:21;;;;;;;13.88;6.82;;;;;;;-4.37;50.71;100220.69;10502937;28;20063;-55
2020/12/12 21:40:24;;;;;;;14.60;6.03;;;;;;;-4.32;50.74;100224.88;10502759;28;20509;-52
2020/12/12 21:45:25;;;;;;;9.30;3.72;;;;;;;-4.26;50.95;100217.09;10502622;28;20048;-52
2020/12/12 21:50:33;;;;;;;13.52;4.25;;;;;;;-4.22;50.82;100239.28;10503057;28;20426;-51
2020/12/12 21:55:35;;;;;;;21.48;7.78;;;;;;;-4.13;50.90;100227.16;10503027;28;20370;-54
2020/12/12 22:00:38;;;;;;;20.70;7.80;;;;;;;-4.11;50.88;100220.28;10501600;28;20059;-54
2020/12/12 22:05:43;;;;;;;19.75;6.88;;;;;;;-4.11;51.02;100210.84;10501284;28;20044;-51
2020/12/12 22:10:45;;;;;;;20.25;7.15;;;;;;;-4.15;50.95;100213.50;10501982;28;20412;-51
2020/12/12 22:15:47;;;;;;;10.30;4.00;;;;;;;-4.14;51.22;100218.59;10500291;28;20048;-54
2020/12/12 22:20:50;;;;;;;11.57;5.00;;;;;;;-4.13;51.18;100207.44;10501216;28;20052;-54
2020/12/12 22:25:51;;;;;;;23.00;7.03;;;;;;;-4.09;51.28;100205.72;10502100;28;20052;-52
2020/12/12 22:30:53;;;;;;;16.60;5.88;;;;;;;-4.06;51.38;100209.06;10502483;28;20079;-52
2020/12/12 22:35:56;;;;;;;17.95;6.70;;;;;;;-3.96;51.32;100199.47;10501850;28;20052;-51
2020/12/12 22:40:57;;;;;;;10.60;4.93;;;;;;;-3.96;51.37;100202.88;10501131;28;20078;-52
2020/12/12 22:45:59;;;;;;;22.83;4.90;;;;;;;-3.89;51.08;100183.06;10500069;28;20059;-52
2020/12/12 22:51:02;;;;;;;11.40;3.88;;;;;;;-3.80;50.93;100192.31;10500978;28;20052;-52
2020/12/12 22:56:03;;;;;;;17.60;6.18;;;;;;;-3.75;51.06;100196.50;10502779;28;20067;-52
2020/12/12 23:01:05;;;;;;;21.73;7.20;;;;;;;-3.60;50.94;100191.94;10502266;28;20048;-52
2020/12/12 23:06:08;;;;;;;15.48;6.60;;;;;;;-3.48;50.62;100194.25;10498875;28;20068;-53
2020/12/12 23:11:09;;;;;;;17.15;4.88;;;;;;;-3.42;50.63;100188.16;10499971;28;20048;-52